sensor_id;sensor_type;location;lat;lon;timestamp;pressure;altitude;pressure_sealevel;temperature;humidity
65190;BME280;51777;53.570;9.984;2023-04-24T00:00:01;99779.13;;;12.85;100.00
65190;BME280;51777;53.570;9.984;2023-04-24T00:02:26;99772.91;;;12.80;100.00
65190;BME280;51777;53.570;9.984;2023-04-24T00:04:52;99763.94;;;12.82;100.00
65190;BME280;51777;53.570;9.984;2023-04-24T00:07:17;99764.13;;;12.81;100.00
65190;BME280;51777;53.570;9.984;2023-04-24T00:09:45;99765.56;;;12.83;100.00
65190;BME280;51777;53.570;9.984;2023-04-24T00:12:10;99745.59;;;12.84;100.00
65190;BME280;51777;53.570;9.984;2023-04-24T00:14:36;99740.59;;;12.82;100.00
65190;BME280;51777;53.570;9.984;2023-04-24T00:17:01;99728.44;;;12.83;100.00
65190;BME280;51777;53.570;9.984;2023-04-24T00:19:28;99730.03;;;12.84;100.00
65190;BME280;51777;53.570;9.984;2023-04-24T00:21:54;99723.06;;;12.84;100.00
65190;BME280;51777;53.570;9.984;2023-04-24T00:24:20;99719.22;;;12.80;100.00
65190;BME280;51777;53.570;9.984;2023-04-24T00:26:45;99707.88;;;12.81;100.00
65190;BME280;51777;53.570;9.984;2023-04-24T00:29:11;99701.38;;;12.71;100.00
65190;BME280;51777;53.570;9.984;2023-04-24T00:31:36;99709.72;;;12.66;100.00
65190;BME280;51777;53.570;9.984;2023-04-24T00:34:03;99708.91;;;12.66;100.00
65190;BME280;51777;53.570;9.984;2023-04-24T00:36:28;99726.09;;;12.67;100.00
65190;BME280;51777;53.570;9.984;2023-04-24T00:38:54;99710.53;;;12.67;100.00
65190;BME280;51777;53.570;9.984;2023-04-24T00:41:21;99704.34;;;12.68;100.00
65190;BME280;51777;53.570;9.984;2023-04-24T00:43:47;99702.09;;;12.64;100.00
65190;BME280;51777;53.570;9.984;2023-04-24T00:46:12;99707.75;;;12.68;100.00
65190;BME280;51777;53.570;9.984;2023-04-24T00:48:39;99704.69;;;12.64;100.00
65190;BME280;51777;53.570;9.984;2023-04-24T00:51:04;99695.56;;;12.69;100.00
65190;BME280;51777;53.570;9.984;2023-04-24T00:53:30;99693.16;;;12.67;100.00
65190;BME280;51777;53.570;9.984;2023-04-24T00:55:56;99693.50;;;12.64;100.00
65190;BME280;51777;53.570;9.984;2023-04-24T00:58:22;99691.09;;;12.62;100.00
65190;BME280;51777;53.570;9.984;2023-04-24T01:00:49;99695.69;;;12.60;100.00
65190;BME280;51777;53.570;9.984;2023-04-24T01:03:15;99702.22;;;12.56;100.00
65190;BME280;51777;53.570;9.984;2023-04-24T01:05:41;99710.81;;;12.57;100.00
65190;BME280;51777;53.570;9.984;2023-04-24T01:08:07;99707.78;;;12.53;100.00
65190;BME280;51777;53.570;9.984;2023-04-24T01:10:33;99704.41;;;12.53;100.00
65190;BME280;51777;53.570;9.984;2023-04-24T01:12:59;99703.75;;;12.51;100.00
65190;BME280;51777;53.570;9.984;2023-04-24T01:15:25;99705.34;;;12.52;100.00
65190;BME280;51777;53.570;9.984;2023-04-24T01:17:50;99706.53;;;12.49;100.00
65190;BME280;51777;53.570;9.984;2023-04-24T01:20:16;99708.44;;;12.41;100.00
65190;BME280;51777;53.570;9.984;2023-04-24T01:22:42;99704.22;;;12.40;100.00
65190;BME280;51777;53.570;9.984;2023-04-24T01:25:08;99702.63;;;12.39;100.00
65190;BME280;51777;53.570;9.984;2023-04-24T01:27:33;99697.91;;;12.42;100.00
65190;BME280;51777;53.570;9.984;2023-04-24T01:29:59;99694.75;;;12.47;100.00
65190;BME280;51777;53.570;9.984;2023-04-24T01:32:25;99691.44;;;12.38;100.00
65190;BME280;51777;53.570;9.984;2023-04-24T01:34:51;99697.72;;;12.44;100.00
65190;BME280;51777;53.570;9.984;2023-04-24T01:37:17;99694.84;;;12.39;100.00
65190;BME280;51777;53.570;9.984;2023-04-24T01:39:43;99694.13;;;12.45;100.00
65190;BME280;51777;53.570;9.984;2023-04-24T01:42:09;99698.50;;;12.44;100.00
65190;BME280;51777;53.570;9.984;2023-04-24T01:44:34;99689.00;;;12.51;100.00
65190;BME280;51777;53.570;9.984;2023-04-24T01:47:00;99696.97;;;12.50;100.00
65190;BME280;51777;53.570;9.984;2023-04-24T01:49:26;99692.22;;;12.53;100.00
65190;BME280;51777;53.570;9.984;2023-04-24T01:51:52;99689.19;;;12.50;100.00
65190;BME280;51777;53.570;9.984;2023-04-24T01:54:17;99687.22;;;12.52;100.00
65190;BME280;51777;53.570;9.984;2023-04-24T01:56:43;99688.66;;;12.54;100.00
65190;BME280;51777;53.570;9.984;2023-04-24T01:59:10;99670.31;;;12.56;100.00
65190;BME280;51777;53.570;9.984;2023-04-24T02:01:36;99673.53;;;12.58;100.00
65190;BME280;51777;53.570;9.984;2023-04-24T02:04:02;99671.31;;;12.55;100.00
65190;BME280;51777;53.570;9.984;2023-04-24T02:06:28;99669.50;;;12.55;100.00
65190;BME280;51777;53.570;9.984;2023-04-24T02:08:53;99663.88;;;12.52;100.00
65190;BME280;51777;53.570;9.984;2023-04-24T02:11:18;99660.63;;;12.43;100.00
65190;BME280;51777;53.570;9.984;2023-04-24T02:13:44;99660.81;;;12.42;100.00
65190;BME280;51777;53.570;9.984;2023-04-24T02:16:09;99662.75;;;12.40;100.00
65190;BME280;51777;53.570;9.984;2023-04-24T02:18:35;99661.94;;;12.39;100.00
65190;BME280;51777;53.570;9.984;2023-04-24T02:21:00;99660.53;;;12.37;100.00
65190;BME280;51777;53.570;9.984;2023-04-24T02:23:26;99663.31;;;12.35;100.00
65190;BME280;51777;53.570;9.984;2023-04-24T02:25:52;99662.88;;;12.31;100.00
65190;BME280;51777;53.570;9.984;2023-04-24T02:28:18;99654.22;;;12.24;100.00
65190;BME280;51777;53.570;9.984;2023-04-24T02:30:44;99662.00;;;12.24;100.00
65190;BME280;51777;53.570;9.984;2023-04-24T02:33:09;99660.16;;;12.18;100.00
65190;BME280;51777;53.570;9.984;2023-04-24T02:35:35;99661.13;;;12.17;100.00
65190;BME280;51777;53.570;9.984;2023-04-24T02:38:00;99665.06;;;12.13;100.00
65190;BME280;51777;53.570;9.984;2023-04-24T02:40:25;99660.25;;;12.10;100.00
65190;BME280;51777;53.570;9.984;2023-04-24T02:42:51;99662.22;;;12.08;100.00
65190;BME280;51777;53.570;9.984;2023-04-24T02:45:16;99654.44;;;12.08;100.00
65190;BME280;51777;53.570;9.984;2023-04-24T02:47:41;99656.94;;;12.01;100.00
65190;BME280;51777;53.570;9.984;2023-04-24T02:50:07;99661.50;;;11.99;100.00
65190;BME280;51777;53.570;9.984;2023-04-24T02:52:32;99654.91;;;11.97;100.00
65190;BME280;51777;53.570;9.984;2023-04-24T02:54:58;99658.47;;;11.96;100.00
65190;BME280;51777;53.570;9.984;2023-04-24T02:57:23;99658.84;;;11.93;100.00
65190;BME280;51777;53.570;9.984;2023-04-24T02:59:49;99657.84;;;11.94;100.00
65190;BME280;51777;53.570;9.984;2023-04-24T03:02:14;99658.38;;;11.89;100.00
65190;BME280;51777;53.570;9.984;2023-04-24T03:04:40;99654.00;;;11.90;100.00
65190;BME280;51777;53.570;9.984;2023-04-24T03:07:08;99650.78;;;11.88;100.00
65190;BME280;51777;53.570;9.984;2023-04-24T03:09:33;99651.16;;;11.85;100.00
65190;BME280;51777;53.570;9.984;2023-04-24T03:11:58;99645.19;;;11.84;100.00
65190;BME280;51777;53.570;9.984;2023-04-24T03:14:24;99646.34;;;11.82;100.00
65190;BME280;51777;53.570;9.984;2023-04-24T03:16:49;99640.56;;;11.80;100.00
65190;BME280;51777;53.570;9.984;2023-04-24T03:19:15;99644.25;;;11.77;100.00
65190;BME280;51777;53.570;9.984;2023-04-24T03:21:40;99649.78;;;11.74;100.00
65190;BME280;51777;53.570;9.984;2023-04-24T03:24:09;99649.38;;;11.70;100.00
65190;BME280;51777;53.570;9.984;2023-04-24T03:26:35;99650.16;;;11.71;100.00
65190;BME280;51777;53.570;9.984;2023-04-24T03:29:00;99648.19;;;11.73;100.00
65190;BME280;51777;53.570;9.984;2023-04-24T03:31:26;99655.91;;;11.66;100.00
65190;BME280;51777;53.570;9.984;2023-04-24T03:33:51;99649.63;;;11.61;100.00
65190;BME280;51777;53.570;9.984;2023-04-24T03:36:16;99660.34;;;11.58;100.00
65190;BME280;51777;53.570;9.984;2023-04-24T03:38:44;99661.69;;;11.54;100.00
65190;BME280;51777;53.570;9.984;2023-04-24T03:41:09;99645.06;;;11.48;100.00
65190;BME280;51777;53.570;9.984;2023-04-24T03:43:35;99652.22;;;11.46;100.00
65190;BME280;51777;53.570;9.984;2023-04-24T03:46:01;99651.78;;;11.42;100.00
65190;BME280;51777;53.570;9.984;2023-04-24T03:48:26;99650.31;;;11.40;100.00
65190;BME280;51777;53.570;9.984;2023-04-24T03:50:51;99648.47;;;11.34;100.00
65190;BME280;51777;53.570;9.984;2023-04-24T03:53:17;99652.03;;;11.33;100.00
65190;BME280;51777;53.570;9.984;2023-04-24T03:55:42;99657.19;;;11.33;100.00
65190;BME280;51777;53.570;9.984;2023-04-24T03:58:08;99657.19;;;11.33;100.00
65190;BME280;51777;53.570;9.984;2023-04-24T04:00:33;99647.03;;;11.31;100.00
65190;BME280;51777;53.570;9.984;2023-04-24T04:02:59;99647.22;;;11.30;100.00
65190;BME280;51777;53.570;9.984;2023-04-24T04:05:25;99643.66;;;11.31;100.00
65190;BME280;51777;53.570;9.984;2023-04-24T04:07:50;99647.66;;;11.33;100.00
65190;BME280;51777;53.570;9.984;2023-04-24T04:10:16;99646.22;;;11.31;100.00
65190;BME280;51777;53.570;9.984;2023-04-24T04:12:42;99645.88;;;11.34;100.00
65190;BME280;51777;53.570;9.984;2023-04-24T04:15:08;99654.78;;;11.31;100.00
65190;BME280;51777;53.570;9.984;2023-04-24T04:17:33;99647.84;;;11.32;100.00
65190;BME280;51777;53.570;9.984;2023-04-24T04:19:59;99645.06;;;11.33;100.00
65190;BME280;51777;53.570;9.984;2023-04-24T04:22:24;99646.66;;;11.34;100.00
65190;BME280;51777;53.570;9.984;2023-04-24T04:24:51;99649.25;;;11.34;100.00
65190;BME280;51777;53.570;9.984;2023-04-24T04:27:17;99641.84;;;11.31;100.00
65190;BME280;51777;53.570;9.984;2023-04-24T04:29:44;99646.66;;;11.34;100.00
65190;BME280;51777;53.570;9.984;2023-04-24T04:32:09;99652.03;;;11.33;100.00
65190;BME280;51777;53.570;9.984;2023-04-24T04:34:34;99656.22;;;11.34;100.00
65190;BME280;51777;53.570;9.984;2023-04-24T04:37:02;99660.78;;;11.32;100.00
65190;BME280;51777;53.570;9.984;2023-04-24T04:39:27;99652.84;;;11.33;100.00
65190;BME280;51777;53.570;9.984;2023-04-24T04:41:55;99661.22;;;11.35;100.00
65190;BME280;51777;53.570;9.984;2023-04-24T04:44:21;99662.81;;;11.36;100.00
65190;BME280;51777;53.570;9.984;2023-04-24T04:46:46;99675.50;;;11.46;100.00
65190;BME280;51777;53.570;9.984;2023-04-24T04:49:12;99672.84;;;11.54;100.00
65190;BME280;51777;53.570;9.984;2023-04-24T04:51:38;99669.47;;;11.68;100.00
65190;BME280;51777;53.570;9.984;2023-04-24T04:54:03;99669.66;;;11.82;100.00
65190;BME280;51777;53.570;9.984;2023-04-24T04:56:28;99672.94;;;11.90;100.00
65190;BME280;51777;53.570;9.984;2023-04-24T04:58:54;99671.03;;;12.14;100.00
65190;BME280;51777;53.570;9.984;2023-04-24T05:01:20;99667.31;;;12.01;100.00
65190;BME280;51777;53.570;9.984;2023-04-24T05:03:46;99660.97;;;11.89;100.00
65190;BME280;51777;53.570;9.984;2023-04-24T05:06:11;99659.91;;;11.84;100.00
65190;BME280;51777;53.570;9.984;2023-04-24T05:08:37;99665.72;;;11.86;100.00
65190;BME280;51777;53.570;9.984;2023-04-24T05:11:02;99659.47;;;11.80;100.00
65190;BME280;51777;53.570;9.984;2023-04-24T05:13:28;99657.69;;;11.81;100.00
65190;BME280;51777;53.570;9.984;2023-04-24T05:15:54;99665.53;;;11.87;100.00
65190;BME280;51777;53.570;9.984;2023-04-24T05:18:20;99670.34;;;11.90;100.00
65190;BME280;51777;53.570;9.984;2023-04-24T05:20:46;99668.22;;;11.94;100.00
65190;BME280;51777;53.570;9.984;2023-04-24T05:23:11;99667.84;;;11.97;100.00
65190;BME280;51777;53.570;9.984;2023-04-24T05:25:37;99667.66;;;11.98;100.00
65190;BME280;51777;53.570;9.984;2023-04-24T05:28:03;99671.16;;;12.05;100.00
65190;BME280;51777;53.570;9.984;2023-04-24T05:30:29;99676.16;;;12.07;100.00
65190;BME280;51777;53.570;9.984;2023-04-24T05:32:57;99673.56;;;12.07;100.00
65190;BME280;51777;53.570;9.984;2023-04-24T05:35:23;99671.50;;;12.17;100.00
65190;BME280;51777;53.570;9.984;2023-04-24T05:37:48;99670.50;;;12.18;100.00
65190;BME280;51777;53.570;9.984;2023-04-24T05:40:13;99672.63;;;12.15;100.00
65190;BME280;51777;53.570;9.984;2023-04-24T05:42:39;99664.78;;;12.23;100.00
65190;BME280;51777;53.570;9.984;2023-04-24T05:45:05;99683.00;;;12.15;100.00
65190;BME280;51777;53.570;9.984;2023-04-24T05:47:31;99678.91;;;12.20;100.00
65190;BME280;51777;53.570;9.984;2023-04-24T05:49:56;99678.88;;;12.35;100.00
65190;BME280;51777;53.570;9.984;2023-04-24T05:52:21;99683.25;;;12.34;100.00
65190;BME280;51777;53.570;9.984;2023-04-24T05:54:47;99689.31;;;12.42;100.00
65190;BME280;51777;53.570;9.984;2023-04-24T05:57:13;99680.97;;;12.46;100.00
65190;BME280;51777;53.570;9.984;2023-04-24T05:59:40;99677.03;;;12.50;100.00
65190;BME280;51777;53.570;9.984;2023-04-24T06:02:06;99680.69;;;12.56;100.00
65190;BME280;51777;53.570;9.984;2023-04-24T06:04:32;99678.31;;;12.61;100.00
65190;BME280;51777;53.570;9.984;2023-04-24T06:06:58;99676.72;;;12.60;100.00
65190;BME280;51777;53.570;9.984;2023-04-24T06:09:24;99687.00;;;12.68;100.00
65190;BME280;51777;53.570;9.984;2023-04-24T06:11:50;99689.31;;;12.63;100.00
65190;BME280;51777;53.570;9.984;2023-04-24T06:14:18;99687.22;;;12.73;100.00
65190;BME280;51777;53.570;9.984;2023-04-24T06:16:43;99687.22;;;12.73;100.00
65190;BME280;51777;53.570;9.984;2023-04-24T06:19:08;99688.84;;;12.74;100.00
65190;BME280;51777;53.570;9.984;2023-04-24T06:21:34;99687.31;;;12.80;100.00
65190;BME280;51777;53.570;9.984;2023-04-24T06:24:00;99689.56;;;12.89;100.00
65190;BME280;51777;53.570;9.984;2023-04-24T06:26:25;99686.81;;;12.91;100.00
65190;BME280;51777;53.570;9.984;2023-04-24T06:28:52;99691.31;;;13.04;100.00
65190;BME280;51777;53.570;9.984;2023-04-24T06:31:19;99686.56;;;13.14;100.00
65190;BME280;51777;53.570;9.984;2023-04-24T06:33:45;99699.47;;;13.22;100.00
65190;BME280;51777;53.570;9.984;2023-04-24T06:36:12;99696.78;;;13.15;100.00
65190;BME280;51777;53.570;9.984;2023-04-24T06:38:37;99704.03;;;13.20;100.00
65190;BME280;51777;53.570;9.984;2023-04-24T06:41:03;99703.84;;;13.21;100.00
65190;BME280;51777;53.570;9.984;2023-04-24T06:43:31;99704.28;;;13.04;100.00
65190;BME280;51777;53.570;9.984;2023-04-24T06:45:57;99703.09;;;13.06;100.00
65190;BME280;51777;53.570;9.984;2023-04-24T06:48:23;99706.88;;;13.04;100.00
65190;BME280;51777;53.570;9.984;2023-04-24T06:50:50;99696.59;;;13.17;100.00
65190;BME280;51777;53.570;9.984;2023-04-24T06:53:16;99701.31;;;13.28;100.00
65190;BME280;51777;53.570;9.984;2023-04-24T06:55:42;99698.66;;;13.21;100.00
65190;BME280;51777;53.570;9.984;2023-04-24T06:58:08;99712.13;;;13.32;100.00
65190;BME280;51777;53.570;9.984;2023-04-24T07:00:34;99711.34;;;13.38;100.00
65190;BME280;51777;53.570;9.984;2023-04-24T07:03:00;99704.84;;;13.48;100.00
65190;BME280;51777;53.570;9.984;2023-04-24T07:05:25;99701.34;;;13.35;100.00
65190;BME280;51777;53.570;9.984;2023-04-24T07:07:51;99706.22;;;13.44;100.00
65190;BME280;51777;53.570;9.984;2023-04-24T07:10:17;99699.38;;;13.65;100.00
65190;BME280;51777;53.570;9.984;2023-04-24T07:12:43;99705.84;;;13.82;100.00
65190;BME280;51777;53.570;9.984;2023-04-24T07:15:09;99710.50;;;13.93;100.00
65190;BME280;51777;53.570;9.984;2023-04-24T07:17:34;99707.81;;;14.21;100.00
65190;BME280;51777;53.570;9.984;2023-04-24T07:20:09;99707.38;;;14.11;100.00
65190;BME280;51777;53.570;9.984;2023-04-24T07:22:38;99705.03;;;14.23;100.00
65190;BME280;51777;53.570;9.984;2023-04-24T07:25:04;99704.50;;;13.93;100.00
65190;BME280;51777;53.570;9.984;2023-04-24T07:27:31;99705.13;;;14.01;100.00
65190;BME280;51777;53.570;9.984;2023-04-24T07:29:56;99709.19;;;14.10;100.00
65190;BME280;51777;53.570;9.984;2023-04-24T07:32:22;99708.22;;;14.25;100.00
65190;BME280;51777;53.570;9.984;2023-04-24T07:34:47;99716.28;;;14.36;100.00
65190;BME280;51777;53.570;9.984;2023-04-24T07:37:12;99724.63;;;14.19;100.00
65190;BME280;51777;53.570;9.984;2023-04-24T07:39:38;99726.72;;;13.95;100.00
65190;BME280;51777;53.570;9.984;2023-04-24T07:42:03;99734.91;;;13.99;100.00
65190;BME280;51777;53.570;9.984;2023-04-24T07:44:29;99725.78;;;14.09;100.00
65190;BME280;51777;53.570;9.984;2023-04-24T07:46:55;99743.03;;;14.17;100.00
65190;BME280;51777;53.570;9.984;2023-04-24T07:49:21;99733.97;;;14.06;100.00
65190;BME280;51777;53.570;9.984;2023-04-24T07:51:47;99738.28;;;14.27;100.00
65190;BME280;51777;53.570;9.984;2023-04-24T07:54:12;99749.00;;;14.52;100.00
65190;BME280;51777;53.570;9.984;2023-04-24T07:56:38;99751.84;;;14.23;100.00
65190;BME280;51777;53.570;9.984;2023-04-24T07:59:04;99756.22;;;14.63;100.00
65190;BME280;51777;53.570;9.984;2023-04-24T08:01:30;99756.91;;;15.05;100.00
65190;BME280;51777;53.570;9.984;2023-04-24T08:03:56;99755.72;;;15.01;100.00
65190;BME280;51777;53.570;9.984;2023-04-24T08:06:22;99746.50;;;15.25;100.00
65190;BME280;51777;53.570;9.984;2023-04-24T08:08:47;99752.31;;;15.20;100.00
65190;BME280;51777;53.570;9.984;2023-04-24T08:11:13;99745.28;;;15.74;100.00
65190;BME280;51777;53.570;9.984;2023-04-24T08:13:38;99750.13;;;15.50;100.00
65190;BME280;51777;53.570;9.984;2023-04-24T08:16:04;99760.53;;;15.37;100.00
65190;BME280;51777;53.570;9.984;2023-04-24T08:18:30;99755.50;;;15.09;100.00
65190;BME280;51777;53.570;9.984;2023-04-24T08:20:55;99759.72;;;15.10;100.00
65190;BME280;51777;53.570;9.984;2023-04-24T08:23:26;99761.75;;;15.68;100.00
65190;BME280;51777;53.570;9.984;2023-04-24T08:25:52;99777.94;;;15.37;100.00
65190;BME280;51777;53.570;9.984;2023-04-24T08:28:18;99766.34;;;15.26;100.00
65190;BME280;51777;53.570;9.984;2023-04-24T08:30:46;99767.53;;;15.10;100.00
65190;BME280;51777;53.570;9.984;2023-04-24T08:33:20;99775.34;;;15.37;100.00
65190;BME280;51777;53.570;9.984;2023-04-24T08:35:45;99779.78;;;15.56;100.00
65190;BME280;51777;53.570;9.984;2023-04-24T08:38:11;99779.56;;;15.38;100.00
65190;BME280;51777;53.570;9.984;2023-04-24T08:40:37;99771.72;;;14.98;100.00
65190;BME280;51777;53.570;9.984;2023-04-24T08:43:03;99781.13;;;14.92;100.00
65190;BME280;51777;53.570;9.984;2023-04-24T08:45:29;99776.25;;;14.69;100.00
65190;BME280;51777;53.570;9.984;2023-04-24T08:47:55;99778.84;;;14.69;100.00
65190;BME280;51777;53.570;9.984;2023-04-24T08:50:26;99774.06;;;14.73;100.00
65190;BME280;51777;53.570;9.984;2023-04-24T08:52:54;99786.06;;;14.67;100.00
65190;BME280;51777;53.570;9.984;2023-04-24T08:55:23;99790.81;;;14.57;100.00
65190;BME280;51777;53.570;9.984;2023-04-24T08:57:55;99789.22;;;14.56;100.00
65190;BME280;51777;53.570;9.984;2023-04-24T09:00:21;99783.94;;;15.04;100.00
65190;BME280;51777;53.570;9.984;2023-04-24T09:02:49;99792.22;;;15.61;100.00
65190;BME280;51777;53.570;9.984;2023-04-24T09:05:17;99795.41;;;15.89;100.00
65190;BME280;51777;53.570;9.984;2023-04-24T09:07:46;99785.78;;;15.90;100.00
65190;BME280;51777;53.570;9.984;2023-04-24T09:10:16;99800.53;;;17.18;100.00
65190;BME280;51777;53.570;9.984;2023-04-24T09:12:42;99794.00;;;16.58;100.00
65190;BME280;51777;53.570;9.984;2023-04-24T09:15:09;99786.63;;;16.93;100.00
65190;BME280;51777;53.570;9.984;2023-04-24T09:17:35;99799.63;;;16.55;100.00
65190;BME280;51777;53.570;9.984;2023-04-24T09:20:01;99798.63;;;15.71;100.00
65190;BME280;51777;53.570;9.984;2023-04-24T09:22:30;99795.38;;;15.16;100.00
65190;BME280;51777;53.570;9.984;2023-04-24T09:25:06;99802.78;;;15.13;100.00
65190;BME280;51777;53.570;9.984;2023-04-24T09:27:33;99799.59;;;15.24;100.00
65190;BME280;51777;53.570;9.984;2023-04-24T09:29:59;99796.00;;;15.38;100.00
65190;BME280;51777;53.570;9.984;2023-04-24T09:32:26;99798.22;;;15.54;100.00
65190;BME280;51777;53.570;9.984;2023-04-24T09:35:13;99799.41;;;15.52;100.00
65190;BME280;51777;53.570;9.984;2023-04-24T09:37:43;99803.81;;;15.45;100.00
65190;BME280;51777;53.570;9.984;2023-04-24T09:40:18;99800.97;;;15.07;100.00
65190;BME280;51777;53.570;9.984;2023-04-24T09:42:54;99800.53;;;14.90;100.00
65190;BME280;51777;53.570;9.984;2023-04-24T09:45:22;99799.31;;;14.86;100.00
65190;BME280;51777;53.570;9.984;2023-04-24T09:47:52;99807.50;;;14.76;100.00
65190;BME280;51777;53.570;9.984;2023-04-24T09:50:19;99810.38;;;14.47;100.00
65190;BME280;51777;53.570;9.984;2023-04-24T09:52:59;99810.75;;;14.44;100.00
65190;BME280;51777;53.570;9.984;2023-04-24T09:55:26;99804.97;;;14.48;100.00
65190;BME280;51777;53.570;9.984;2023-04-24T09:57:57;99809.88;;;14.30;100.00
65190;BME280;51777;53.570;9.984;2023-04-24T10:00:30;99804.16;;;14.13;100.00
65190;BME280;51777;53.570;9.984;2023-04-24T10:03:01;99820.94;;;14.04;100.00
65190;BME280;51777;53.570;9.984;2023-04-24T10:05:31;99815.50;;;13.99;100.00
65190;BME280;51777;53.570;9.984;2023-04-24T10:08:09;99814.56;;;13.78;100.00
65190;BME280;51777;53.570;9.984;2023-04-24T10:10:38;99817.09;;;13.72;100.00
65190;BME280;51777;53.570;9.984;2023-04-24T10:13:04;99812.16;;;13.77;100.00
65190;BME280;51777;53.570;9.984;2023-04-24T10:15:30;99815.47;;;13.92;100.00
65190;BME280;51777;53.570;9.984;2023-04-24T10:17:59;99822.88;;;13.95;100.00
65190;BME280;51777;53.570;9.984;2023-04-24T10:20:27;99818.09;;;13.71;100.00
65190;BME280;51777;53.570;9.984;2023-04-24T10:22:55;99821.84;;;13.90;100.00
65190;BME280;51777;53.570;9.984;2023-04-24T10:25:26;99821.88;;;13.96;100.00
65190;BME280;51777;53.570;9.984;2023-04-24T10:27:53;99830.66;;;13.95;100.00
65190;BME280;51777;53.570;9.984;2023-04-24T10:30:22;99825.06;;;13.98;100.00
65190;BME280;51777;53.570;9.984;2023-04-24T10:32:48;99825.53;;;14.02;100.00
65190;BME280;51777;53.570;9.984;2023-04-24T10:35:15;99831.09;;;13.99;100.00
65190;BME280;51777;53.570;9.984;2023-04-24T10:37:45;99823.28;;;13.71;100.00
65190;BME280;51777;53.570;9.984;2023-04-24T10:40:11;99830.44;;;13.90;100.00
65190;BME280;51777;53.570;9.984;2023-04-24T10:42:40;99835.53;;;13.77;100.00
65190;BME280;51777;53.570;9.984;2023-04-24T10:45:16;99838.03;;;13.92;100.00
65190;BME280;51777;53.570;9.984;2023-04-24T10:47:51;99837.25;;;13.91;100.00
65190;BME280;51777;53.570;9.984;2023-04-24T10:50:16;99836.25;;;13.92;100.00
65190;BME280;51777;53.570;9.984;2023-04-24T10:52:49;99832.50;;;14.01;100.00
65190;BME280;51777;53.570;9.984;2023-04-24T10:58:09;99831.41;;;14.17;100.00
65190;BME280;51777;53.570;9.984;2023-04-24T11:00:40;99833.22;;;14.51;100.00
65190;BME280;51777;53.570;9.984;2023-04-24T11:03:32;99832.09;;;14.67;100.00
65190;BME280;51777;53.570;9.984;2023-04-24T11:06:06;99831.78;;;14.90;100.00
65190;BME280;51777;53.570;9.984;2023-04-24T11:08:38;99825.53;;;14.78;100.00
65190;BME280;51777;53.570;9.984;2023-04-24T11:11:15;99829.28;;;14.68;100.00
65190;BME280;51777;53.570;9.984;2023-04-24T11:24:25;99822.53;;;14.81;100.00
65190;BME280;51777;53.570;9.984;2023-04-24T11:26:53;99824.97;;;14.89;100.00
65190;BME280;51777;53.570;9.984;2023-04-24T11:29:20;99831.00;;;15.09;100.00
65190;BME280;51777;53.570;9.984;2023-04-24T11:31:46;99825.03;;;15.22;100.00
65190;BME280;51777;53.570;9.984;2023-04-24T11:34:15;99826.22;;;15.19;100.00
65190;BME280;51777;53.570;9.984;2023-04-24T11:36:48;99826.00;;;15.08;100.00
65190;BME280;51777;53.570;9.984;2023-04-24T11:39:14;99822.25;;;15.56;100.00
65190;BME280;51777;53.570;9.984;2023-04-24T11:41:40;99828.50;;;15.82;100.00
65190;BME280;51777;53.570;9.984;2023-04-24T11:44:07;99831.09;;;15.82;100.00
65190;BME280;51777;53.570;9.984;2023-04-24T11:46:33;99829.50;;;15.68;100.00
65190;BME280;51777;53.570;9.984;2023-04-24T11:48:58;99831.06;;;15.49;100.00
65190;BME280;51777;53.570;9.984;2023-04-24T11:51:25;99825.72;;;14.83;100.00
65190;BME280;51777;53.570;9.984;2023-04-24T11:53:55;99829.88;;;14.64;100.00
65190;BME280;51777;53.570;9.984;2023-04-24T11:56:22;99832.25;;;14.59;100.00
65190;BME280;51777;53.570;9.984;2023-04-24T11:58:48;99835.63;;;14.53;100.00
65190;BME280;51777;53.570;9.984;2023-04-24T12:01:13;99831.31;;;14.38;100.00
65190;BME280;51777;53.570;9.984;2023-04-24T12:03:39;99826.56;;;14.42;100.00
65190;BME280;51777;53.570;9.984;2023-04-24T12:06:10;99833.34;;;14.78;100.00
65190;BME280;51777;53.570;9.984;2023-04-24T12:08:36;99832.41;;;15.05;100.00
65190;BME280;51777;53.570;9.984;2023-04-24T12:11:04;99830.22;;;15.02;100.00
65190;BME280;51777;53.570;9.984;2023-04-24T12:13:32;99834.78;;;15.00;100.00
65190;BME280;51777;53.570;9.984;2023-04-24T12:15:58;99828.41;;;14.48;100.00
65190;BME280;51777;53.570;9.984;2023-04-24T12:18:24;99826.47;;;14.63;100.00
65190;BME280;51777;53.570;9.984;2023-04-24T12:20:50;99831.28;;;14.66;100.00
65190;BME280;51777;53.570;9.984;2023-04-24T12:23:15;99834.44;;;14.55;100.00
65190;BME280;51777;53.570;9.984;2023-04-24T12:25:43;99836.25;;;14.61;100.00
65190;BME280;51777;53.570;9.984;2023-04-24T12:28:12;99836.25;;;14.55;100.00
65190;BME280;51777;53.570;9.984;2023-04-24T12:30:48;99837.44;;;14.52;100.00
65190;BME280;51777;53.570;9.984;2023-04-24T12:33:21;99837.66;;;14.57;100.00
65190;BME280;51777;53.570;9.984;2023-04-24T12:35:48;99848.88;;;14.30;100.00
65190;BME280;51777;53.570;9.984;2023-04-24T12:38:15;99846.31;;;14.36;100.00
65190;BME280;51777;53.570;9.984;2023-04-24T12:40:42;99844.88;;;13.99;100.00
65190;BME280;51777;53.570;9.984;2023-04-24T12:43:18;99845.94;;;13.77;100.00
65190;BME280;51777;53.570;9.984;2023-04-24T12:45:44;99841.97;;;13.81;100.00
65190;BME280;51777;53.570;9.984;2023-04-24T12:48:10;99836.47;;;13.97;100.00
65190;BME280;51777;53.570;9.984;2023-04-24T12:50:36;99843.53;;;14.03;100.00
65190;BME280;51777;53.570;9.984;2023-04-24T12:53:03;99844.03;;;13.92;100.00
65190;BME280;51777;53.570;9.984;2023-04-24T12:55:28;99849.34;;;13.77;100.00
65190;BME280;51777;53.570;9.984;2023-04-24T12:57:53;99852.56;;;13.58;100.00
65190;BME280;51777;53.570;9.984;2023-04-24T13:02:48;99849.75;;;13.17;100.00